Tiempo atmosférico en la estación meteorológica de Sevilla Aeropuerto, Sevilla (34 m.)



Fecha
DESCASC
Temp. máxima en grados centígrados (hora)
DESCASC
Temp. mínima en grados centígrados (hora)
DESCASC
Temp. media en grados centígrados
DESCASC
Racha de viento máxima en m/sg (hora)
DESCASC
Velocidad máxima media en intervalos de 10 minutos(hora)
DESCASC
Precipitaciones diarias en mm
DESCASC
Precipitaciones de 00:00 a 06:00 en mm
DESCASC
Precipitaciones de 06:00 a 12:00 en mm
DESCASC
Precipitaciones de 12:00 a 18:00 en mm
DESCASC
Precipitaciones de 18:00 a 24:00 en mm
DESCASC
22-08-2019 36.1 (18:20) 23.6 (06:20) 29.8 13.33 (15:40) 8.61 (12:10) 0 0 0 0 0
21-08-2019 36.2 (18:10) 19.6 (05:20) 27.9 9.72 (19:50) 7.5 (19:50) 0 0 0 0 0
20-08-2019 35.2 (18:00) 19 (06:40) 27.1 7.78 (20:10) 5.83 (20:20) 0 0 0 0 0
19-08-2019 34.5 (16:20) 19.5 (07:50) 27 10.83 (17:30) 7.78 (19:00) 0 0 0 0 0
18-08-2019 35.3 (16:50) 20.7 (00:00) 28 13.89 (22:30) 8.06 (20:40) 0 0 0 0 0
17-08-2019 40.2 (18:40) 21 (00:00) 30.6 8.89 (19:50) 6.39 (20:40) 0 0 0 0 0
16-08-2019 38.4 (17:50) 21.6 (00:00) 30 8.89 (17:00) 6.39 (17:10) 0 0 0 0 0
15-08-2019 39.5 (17:40) 21.2 (00:00) 30.4 8.89 (20:30) 6.11 (19:10) 0 0 0 0 0
14-08-2019 38.6 (19:30) 19.2 (00:00) 28.9 7.78 (21:50) 5.83 (21:50) 0 0 0 0 0
13-08-2019 36.6 (19:00) 16.7 (00:00) 26.6 8.33 (20:00) 6.67 (20:00) 0 0 0 0 0
12-08-2019 34.9 (18:30) 20 (00:00) 27.5 8.33 (00:50) 6.11 (20:50) 0 0 0 0 0
11-08-2019 34.2 (16:50) 20.2 (00:00) 27.2 12.5 (21:40) 6.11 (00:30) 0 0 0 0 0
10-08-2019 35.4 (17:20) 21 (00:00) 28.2 10.83 (17:30) 7.5 (20:00) 0 0 0 0 0
09-08-2019 34.2 (16:20) 20.1 (00:00) 27.2 11.67 (18:00) 8.61 (19:30) 0 0 0 0 0
08-08-2019 36.4 (16:10) 19.7 (00:00) 28.1 10.83 (19:20) 8.61 (19:50) 0 0 0 0 0
07-08-2019 34.3 (18:00) 19.9 (00:00) 27.1 8.33 (19:50) 6.39 (19:50) 0 0 0 0 0
06-08-2019 36.8 (17:30) 18.3 (00:00) 27.5 9.72 (20:20) 6.94 (19:50) 0 0 0 0 0
05-08-2019 37.7 (16:40) 19.4 (00:00) 28.6 10.28 (18:00) 7.5 (18:40) 0 0 0 0 0
04-08-2019 36.8 (17:50) 20 (00:00) 28.4 9.72 (19:30) 7.5 (19:30) 0 0 0 0 0
03-08-2019 35.2 (18:00) 19.5 (00:00) 27.4 9.72 (20:10) 7.5 (20:10) 0 0 0 0 0
02-08-2019 37 (16:30) 19.2 (00:00) 28.1 10.28 (19:00) 7.78 (19:30) 0 0 0 0 0
01-08-2019 -- (--) -- (--) -- -- (--) -- (--) -- -- -- 0 0
31-07-2019 36.8 (17:30) 20.2 (00:00) 28.5 9.17 (14:20) 7.22 (20:40) 0 0 0 0 0
30-07-2019 36.9 (17:50) 21 (00:00) 29 8.89 (00:40) 6.39 (09:30) -- 0 0 -- 0
29-07-2019 35.3 (17:50) 19.3 (00:00) 27.3 11.39 (19:00) 7.78 (19:00) 0 0 0 0 0
28-07-2019 32.4 (17:30) 19 (00:00) 25.7 10.28 (17:20) 7.78 (20:20) 0 0 0 0 0
27-07-2019 28.5 (14:20) 20.1 (00:00) 24.3 12.78 (16:20) 9.17 (18:00) 0 0 0 0 0
26-07-2019 34.2 (16:50) 21.1 (00:00) 27.7 12.78 (18:10) 8.89 (19:10) 0 0 0 0 0

Gráficas

Temp. máximas Temp. mínimas Temp. medias Precipitaciones Rachas de viento máximas Velocidades máximas media en intervalos de 10 minutos

Datos horarios

Fecha y hora oficial Temperatura (ºC) Velocidad del viento (km/h) Dirección del viento Racha (km/h) Dirección de racha Precipitación (mm) Presión (hPa) Tendencia (hPa) Humedad (%)
2019-08-24 23:00:00 28.5 15 Sudoeste 30 Sudoeste 0 1011.6 2.3 41
2019-08-24 22:00:00 30.7 21 Sudoeste 32 Sudoeste 0 1010.5 1 33
2019-08-24 21:00:00 32.3 22 Sudoeste 32 Sudoeste 0 1009.6 -0.1 31
2019-08-24 20:00:00 34.9 23 Sudoeste 32 Sudoeste 0 1009.3 -0.9 21
2019-08-24 19:00:00 37.4 15 Oeste 30 Sudoeste 0 1009.5 -1.4 16
2019-08-24 18:00:00 38.3 10 Este 24 Noroeste 0 1009.7 -1.9 14
2019-08-24 17:00:00 37.8 9 Oeste 24 Sudoeste 0 1010.2 -1.9 15
2019-08-24 16:00:00 36.9 7 Sudeste 22 Sur 0 1010.9 -1.8 15
2019-08-24 15:00:00 36.3 5 Sur 21 Sudeste 0 1011.6 -1.5 15
2019-08-24 14:00:00 34.6 9 Este 18 Este 0 1012.1 -1 16
2019-08-24 13:00:00 33.2 6 Este 18 Este 0 1012.7 -0.3 20
2019-08-24 12:00:00 31.5 8 Este 30 Este 0 1013.1 0.3 25
2019-08-24 11:00:00 28.4 12 Nordeste 22 Nordeste 0 1013.1 0.8 33
2019-08-24 10:00:00 25.4 15 Nordeste 22 Nordeste 0 1013 0.7 40
2019-08-24 09:00:00 22.9 12 Nordeste 18 Nordeste 0 1012.8 0.4 47
2019-08-24 08:00:00 21.5 9 Nordeste 17 Nordeste 0 1012.3 -0.4 70
2019-08-24 07:00:00 22.6 6 Nordeste 17 Este 0 1012.3 -0.6 70
2019-08-24 06:00:00 23 4 Este 11 Noroeste 0 1012.4 -0.4 68
2019-08-24 05:00:00 23.9 10 Noroeste 13 Noroeste 0 1012.7 0.2 66
2019-08-24 04:00:00 24.1 3 Este 13 Oeste 0 1012.9 0.6 63
2019-08-24 03:00:00 25.4 11 Oeste 21 Oeste 0 1012.8 1.2 58
2019-08-24 02:00:00 26.6 12 Oeste 22 Oeste 0 1012.5 1.7 53
2019-08-24 01:00:00 27.6 15 Sudoeste 24 Sudoeste 0 1012.3 2.4 50
2019-08-24 00:00:00 28.3 10 Sur 21 Oeste 0 1011.6 2.3 47
2019-08-23 23:00:00 29.7 13 Sur 21 Sudoeste 0 1010.8 1.7 43
2019-08-23 22:00:00 32.1 13 Sudoeste 24 Sudoeste 0 1009.9 0.5 34
2019-08-23 21:00:00 34.6 12 Sudeste 18 Este 0 1009.3 -0.1 20
2019-08-23 20:00:00 36.5 17 Este 28 Este 0 1009.1 -0.5 16
2019-08-23 19:00:00 37.1 20 Este 35 Este 0 1009.4 -0.9 16
2019-08-23 18:00:00 37.6 16 Este 35 Este 0 1009.4 -1.6 15
2019-08-23 17:00:00 37.6 24 Este 41 Este 0 1009.6 -2.1 16
2019-08-23 16:00:00 37.1 12 Este 33 Este 0 1010.3 -2.1 17
2019-08-23 15:00:00 36.6 23 Este 32 Este 0 1011 -1.9 18
2019-08-23 14:00:00 35.2 19 Este 33 Este 0 1011.7 -1.2 20
2019-08-23 13:00:00 33.6 24 Este 41 Sudeste 0 1012.4 -0.4 23
2019-08-23 12:00:00 31.6 23 Este 41 Este 0 1012.9 0.4 28
2019-08-23 11:00:00 30.1 26 Este 39 Este 0 1012.9 0.8 32
2019-08-23 10:00:00 28.4 26 Este 41 Este 0 1012.8 1.3 38
2019-08-23 09:00:00 26.3 17 Este 24 Este 0 1012.5 0.8 45
2019-08-23 08:00:00 25 12 Este 28 Este 0 1012.1 0.4 48
2019-08-23 07:00:00 24.9 20 Este 30 Este 0 1011.5 -0.1 54
2019-08-23 06:00:00 24.6 13 Este 22 Este 0 1011.7 -0.3 56
2019-08-23 05:00:00 23.9 11 Nordeste 17 Este 0 1011.7 -0.5 60
2019-08-23 04:00:00 25.3 8 Nordeste 13 Nordeste 0 1011.6 -0.5 54
2019-08-23 03:00:00 26.1 6 Norte 13 Norte 0 1012 0.1 54
2019-08-23 02:00:00 27.4 13 Norte 18 Norte 0 1012.2 0.6 49
2019-08-23 01:00:00 27.2 5 Norte 8 Norte 0 1012.1 1.4 49
2019-08-23 00:00:00 28.6 3 Sur 13 Sudoeste 0 1011.9 1.9 46
2019-08-22 23:00:00 30.4 9 Sudoeste 21 Sur 0 1011.6 2 39
2019-08-22 22:00:00 31.9 10 Sur 22 Sudoeste 0 1010.7 1 33
2019-08-22 21:00:00 33.8 15 Sur 37 Sudeste 0 1010 0.1 34
2019-08-22 20:00:00 35.2 22 Este 35 Sudeste 0 1009.6 -0.8 27
2019-08-22 19:00:00 35.7 20 Este 35 Sudeste 0 1009.7 -1.3 25
2019-08-22 18:00:00 35.7 26 Este 41 Sudeste 0 1009.9 -1.5 26
2019-08-22 17:00:00 35.4 30 Este 46 Este 0 1010.4 -1.8 27
2019-08-22 16:00:00 35 30 Este 48 Este 0 1011 -2.1 29
2019-08-22 15:00:00 34.2 27 Este 46 Este 0 1011.4 -1.8 35
2019-08-22 14:00:00 33 27 Este 42 Este 0 1012.2 -1.1 40
2019-08-22 13:00:00 31.6 28 Este 45 Este 0 1013.1 -0.1 46
2019-08-22 12:00:00 31 27 Este 42 Este 0 1013.2 0.1 44
2019-08-22 11:00:00 28.9 19 Este 33 Nordeste 0 1013.3 0.4 52
2019-08-22 10:00:00 26.9 15 Nordeste 26 Nordeste 0 1013.2 0.5 59
2019-08-22 09:00:00 24.8 13 Nordeste 17 Nordeste 0 1013.1 0.4 67
2019-08-22 08:00:00 23.7 10 Este 33 Este 0 1012.9 0 73
2019-08-22 07:00:00 24 10 Nordeste 24 Este 0 1012.7 -0.4 72
2019-08-22 06:00:00 23.8 6 Norte 9 Norte 0 1012.7 -0.5 73
2019-08-22 05:00:00 24.6 4 Sudeste 9 Sur 0 1012.9 -0.3 70
2019-08-22 04:00:00 24.8 7 Sur 11 Sudoeste 0 1013.1 -0.1 69
2019-08-22 03:00:00 26.3 8 Sudoeste 21 Sudoeste 0 1013.2 0.6 64
2019-08-22 02:00:00 27 10 Oeste 21 Oeste 0 1013.2 1.2 61
2019-08-22 01:00:00 27.5 10 Oeste 22 Oeste 0 1013.2 2.2 57
2019-08-22 00:00:00 28.7 12 Oeste 22 Oeste 0 1012.6 2.2 53
2019-08-21 23:00:00 29.4 17 Sudoeste 28 Sudoeste 0 1012 2.2 50
2019-08-21 22:00:00 30.6 19 Sudoeste 30 Oeste 0 1011 1.4 45
2019-08-21 21:00:00 32 20 Sudoeste 33 Sudoeste 0 1010.4 0.7 39
2019-08-21 20:00:00 33 25 Sudoeste 35 Sudoeste 0 1009.8 -0.5 38
2019-08-21 19:00:00 36.1 10 Sudoeste 22 Noroeste 0 1009.6 -1.5 24
2019-08-21 18:00:00 35.9 12 Sudoeste 22 Oeste 0 1009.7 -2 25
2019-08-21 17:00:00 35.4 11 Oeste 24 Oeste 0 1010.3 -1.6 26
2019-08-21 16:00:00 34.7 10 Sur 21 Sudoeste 0 1011.1 -1.5 27
2019-08-21 15:00:00 33.7 11 Oeste 22 Oeste 0 1011.7 -1.6 29
2019-08-21 14:00:00 33.3 9 Sudoeste 18 Sudoeste 0 1011.9 -1.4 31
2019-08-21 13:00:00 31.4 5 Sudeste 17 Norte 0 1012.6 -0.7 34
2019-08-21 12:00:00 29.5 12 Norte 24 Norte 0 1013.3 0.1 28
2019-08-21 11:00:00 26.8 8 Norte 17 Norte 0 1013.3 0.4 33
2019-08-21 10:00:00 23.2 5 Nordeste 13 Norte 0 1013.3 0.6 47
2019-08-21 09:00:00 20.2 5 Norte 11 Norte 0 1013.2 0.7 57
2019-08-21 08:00:00 19.8 7 Norte 18 Norte 0 1012.9 0.7 56
2019-08-21 07:00:00 19.9 6 Nordeste 21 Nordeste 0 1012.7 0.4 59
2019-08-21 06:00:00 20.1 8 Nordeste 13 Nordeste 0 1012.5 -0.1 60
2019-08-21 05:00:00 20.1 9 Nordeste 13 Nordeste 0 1012.2 -0.1 62
2019-08-21 04:00:00 20.2 4 Noroeste 13 Sur 0 1012.3 0.2 61
2019-08-21 03:00:00 20.4 13 Sur 24 Sur 0 1012.6 0.9 64
2019-08-21 02:00:00 21.5 17 Sur 22 Sur 0 1012.3 0.9 58
2019-08-21 01:00:00 22 12 Sur 21 Sudoeste 0 1012.1 1.5 56
2019-08-21 00:00:00 24 10 Sur 18 Sudoeste 0 1011.7 1.6 45
2019-08-20 23:00:00 25.6 13 Sudoeste 21 Sudoeste 0 1011.4 1.4 39
2019-08-20 22:00:00 28 15 Sudoeste 26 Sudoeste 0 1010.6 0.8 27
2019-08-20 21:00:00 30.4 19 Sudoeste 28 Sudoeste 0 1010.1 0 24
2019-08-20 20:00:00 32.6 20 Sudoeste 26 Sudoeste 0 1010 -0.6 20
2019-08-20 19:00:00 34.6 14 Sudoeste 21 Sudoeste 0 1009.8 -1.3 17
2019-08-20 18:00:00 35 8 Sur 18 Sudoeste 0 1010.1 -1.6 14
2019-08-20 17:00:00 34.4 6 Sur 26 Noroeste 0 1010.6 -1.6 13
2019-08-20 16:00:00 33.4 8 Oeste 22 Norte 0 1011.1 -1.5 18
2019-08-20 15:00:00 32.5 6 Sudoeste 17 Sudoeste 0 1011.7 -1.1 18
2019-08-20 14:00:00 31.2 9 Oeste 21 Sudoeste 0 1012.2 -0.3 24
2019-08-20 13:00:00 29.4 7 Norte 13 Norte 0 1012.6 0.5 28
2019-08-20 12:00:00 27.6 6 Oeste 13 Oeste 0 1012.8 1 31
2019-08-20 11:00:00 25.3 3 Noroeste 9 Norte 0 1012.5 1 35
2019-08-20 10:00:00 23.6 2 Norte 8 Oeste 0 1012.1 1.3 49
2019-08-20 09:00:00 20.7 4 Sudoeste 9 Sur 0 1011.8 1 60
2019-08-20 08:00:00 19 0 Calma 11 Sur 0 1011.5 0.6 67
2019-08-20 07:00:00 19.3 9 Sur 13 Sur 0 1010.8 -0.1 65
2019-08-20 06:00:00 19.5 9 Sur 13 Sur 0 1010.8 0 64
2019-08-20 05:00:00 19.6 9 Sur 13 Sur 0 1010.9 -0.1 63
2019-08-20 04:00:00 20.4 7 Sur 9 Sudeste 0 1010.9 -0.1 58
2019-08-20 03:00:00 22.1 10 Sur 18 Sur 0 1010.8 0 55
2019-08-20 02:00:00 22.8 4 Sudoeste 15 Sudoeste 0 1011 0.5 49
2019-08-20 01:00:00 23.4 12 Sudoeste 21 Sur 0 1011 1.4 46
2019-08-20 00:00:00 24.4 10 Sur 22 Sudoeste 0 1010.8 1.8 42
2019-08-19 23:00:00 25.8 19 Sudoeste 26 Sudoeste 0 1010.5 1.9 38
2019-08-19 22:00:00 27.3 19 Sudoeste 35 Sudoeste 0 1009.6 1 38
2019-08-19 21:00:00 30.3 23 Sudoeste 33 Oeste 0 1009 0.1 33
2019-08-19 20:00:00 33.4 22 Sudoeste 39 Sudoeste 0 1008.6 -0.9 25
2019-08-19 19:00:00 33.9 28 Sudoeste 37 Sudoeste 0 1008.6 -1.4 21
2019-08-19 18:00:00 33.8 26 Sudoeste 39 Sudoeste 0 1008.9 -1.7 27
2019-08-19 17:00:00 33.8 21 Sur 37 Sudoeste 0 1009.5 -1.6 34
2019-08-19 16:00:00 34 20 Sudoeste 33 Sudoeste 0 1010 -1.5 35
2019-08-19 15:00:00 32.9 14 Sudoeste 32 Sudoeste 0 1010.6 -1 37
2019-08-19 14:00:00 31.8 14 Sudoeste 24 Oeste 0 1011.1 -0.4 39
2019-08-19 13:00:00 30.1 9 Sudoeste 26 Sudoeste 0 1011.5 0.1 48
2019-08-19 12:00:00 28.5 8 Sur 17 Sur 0 1011.6 0.1 52
2019-08-19 11:00:00 26.4 8 Sur 15 Sudoeste 0 1011.5 0.1 61
2019-08-19 10:00:00 24.1 7 Sur 11 Sudoeste 0 1011.4 0.6 70
2019-08-19 09:00:00 22.2 6 Sur 9 Sur 0 1011.5 1 77
2019-08-19 08:00:00 19.6 4 Sudeste 9 Sudeste 0 1011.4 0.9 81
2019-08-19 07:00:00 20.3 3 Este -- -- 0 1010.8 0.1 78
2019-08-19 06:00:00 21.2 3 Sur 15 Sur 0 1010.5 -0.5 75
2019-08-19 05:00:00 21.5 10 Sur 17 Sur 0 1010.5 -0.6 74
2019-08-19 04:00:00 21.1 9 Sur 11 Sur 0 1010.7 -0.2 73
2019-08-19 03:00:00 21.9 8 Sur 13 Sur 0 1011 0.3 71
2019-08-19 02:00:00 23.4 8 Sur 15 Sudoeste 0 1011.1 0.6 67
2019-08-19 01:00:00 23.7 8 Sudoeste 18 Sudoeste 0 1010.9 1.4 67
2019-08-19 00:00:00 24.1 17 Sudoeste 22 Sudoeste 0 1010.7 2.1 64
2019-08-18 23:00:00 24.8 17 Sudoeste 50 Sudoeste 0 1010.5 2.3 59
2019-08-18 22:00:00 26.4 14 Sudoeste 39 Sudoeste 0 1009.5 1.2 51
2019-08-18 21:00:00 28.7 26 Sudoeste 41 Sudoeste 0 1008.6 0 43
2019-08-18 20:00:00 32.3 23 Sudoeste 39 Sudoeste 0 1008.2 -0.7 34
2019-08-18 19:00:00 33.8 28 Sudoeste 39 Sudoeste 0 1008.3 -0.8 29
2019-08-18 18:00:00 34.5 25 Sudoeste 37 Sudoeste 0 1008.6 -1.3 31
2019-08-18 17:00:00 34.8 23 Sudoeste 33 Sudoeste 0 1008.9 -1.5 32
2019-08-18 16:00:00 34 19 Sudoeste 33 Sudoeste 0 1009.1 -1.6 36
2019-08-18 15:00:00 32.4 17 Sudoeste 30 Sudoeste 0 1009.9 -1.1 41
2019-08-18 14:00:00 30.9 21 Sudoeste 30 Sudoeste 0 1010.4 -0.2 45
2019-08-18 13:00:00 29.3 19 Sudoeste 32 Sudoeste 0 1010.7 0.4 52
2019-08-18 12:00:00 28.5 18 Sudoeste 28 Sudoeste 0 1011 1.6 49
2019-08-18 11:00:00 26.5 19 Sudoeste 26 Sudoeste 0 1010.6 1.6 58
2019-08-18 10:00:00 25.1 14 Sudoeste 21 Sudoeste 0 1010.3 1.8 62
2019-08-18 09:00:00 23.5 9 Sudoeste 15 Sudoeste 0 1009.4 1.4 60
2019-08-18 08:00:00 21.6 6 Sur 11 Sur 0 1009 0.9 59
2019-08-18 07:00:00 21.2 3 Sur 5 Sur 0 1008.5 -0.2 61
2019-08-18 06:00:00 21.7 5 Sudeste 8 Sudeste 0 1008 -1 61
2019-08-18 05:00:00 22.3 4 Sur 8 Sur 0 1008.1 -1.1 59
2019-08-18 04:00:00 23.2 5 Sur 13 Sudoeste 0 1008.7 -0.5 58
2019-08-18 03:00:00 24.5 7 Sur 18 Sudoeste 0 1009 0 56
2019-08-18 02:00:00 24.9 18 Sur 22 Sur 0 1009.2 0.8 53
2019-08-18 01:00:00 27.1 10 Sur 18 Sur 0 1009.2 1.6 40
2019-08-18 00:00:00 29.4 12 Sudoeste 21 Sudoeste 0 1009 1.9 32
2019-08-17 23:00:00 32.9 12 Sudoeste 22 Oeste 0 1008.4 1.6 23
2019-08-17 22:00:00 34.2 13 Sudoeste 30 Oeste 0 1007.6 0.6 21
2019-08-17 21:00:00 36.3 15 Oeste 32 Oeste 0 1007.1 -0.5 18
2019-08-17 20:00:00 38.5 22 Oeste 32 Oeste 0 1006.8 -1.2 17
2019-08-17 19:00:00 39.7 15 Oeste 24 Sudoeste 0 1007 -1.5 17
2019-08-17 18:00:00 39.6 14 Sudoeste 28 Sudoeste 0 1007.6 -1.7 13
2019-08-17 17:00:00 39.6 18 Oeste 26 Oeste 0 1008 -2.1 13
2019-08-17 16:00:00 39.5 14 Sudoeste 22 Oeste 0 1008.5 -2.2 14
2019-08-17 15:00:00 38.4 9 Oeste 18 Noroeste 0 1009.3 -1.9 19
2019-08-17 14:00:00 36.4 6 Oeste 15 Oeste 0 1010.1 -1.4 22
2019-08-17 13:00:00 35 5 Sudeste 11 Sur 0 1010.7 -0.9 24
2019-08-17 12:00:00 32.2 4 Norte 13 Norte 0 1011.2 -0.1 28
2019-08-17 11:00:00 29.1 4 Nordeste 13 Este 0 1011.5 0.3 36
2019-08-17 10:00:00 26.2 7 Nordeste 11 Nordeste 0 1011.6 0.5 44
2019-08-17 09:00:00 22.8 5 Nordeste 9 Nordeste 0 1011.3 0.2 56
2019-08-17 08:00:00 21.3 3 Nordeste 9 Este 0 1011.2 0 62
2019-08-17 07:00:00 21.3 8 Este 11 Este 0 1011.1 -0.1 64
2019-08-17 06:00:00 21.9 6 Este 8 Este 0 1011.1 -0.2 64
2019-08-17 05:00:00 23 3 Sur 11 Sudoeste 0 1011.2 -0.2 60
2019-08-17 04:00:00 23.6 7 Sur 22 Sur 0 1011.2 -0.4 58
2019-08-17 03:00:00 23.8 16 Sur 21 Sur 0 1011.3 -0.4 58
2019-08-17 02:00:00 25.9 15 Sur 18 Sur 0 1011.4 -0.1 44
2019-08-17 01:00:00 27.1 10 Sudoeste 15 Sudoeste 0 1011.6 1 40
2019-08-17 00:00:00 28.3 7 Sudoeste 15 Sudoeste 0 1011.7 1.7 37
2019-08-16 23:00:00 30.4 13 Sudoeste 18 Sudoeste 0 1011.5 1.9 31
2019-08-16 22:00:00 32.6 14 Sudoeste 26 Sudoeste 0 1010.6 0.9 25
2019-08-16 21:00:00 34.4 22 Sudoeste 30 Sudoeste 0 1010 0 23
2019-08-16 20:00:00 37.1 19 Sudoeste 30 Oeste 0 1009.6 -1 19
2019-08-16 19:00:00 37.6 21 Sudoeste 32 Oeste 0 1009.7 -1.5 19
2019-08-16 18:00:00 37.9 21 Sudoeste 32 Sudoeste 0 1010 -1.7 20
2019-08-16 17:00:00 37.5 22 Sudoeste 32 Sudoeste 0 1010.6 -1.8 21
2019-08-16 16:00:00 37 16 Sudoeste 28 Sudoeste 0 1011.2 -1.7 25
2019-08-16 15:00:00 35.7 16 Sudoeste 26 Oeste 0 1011.7 -1.5 23
2019-08-16 14:00:00 34.5 15 Sudoeste 24 Sudoeste 0 1012.4 -0.7 27
2019-08-16 13:00:00 33 10 Sudoeste 21 Sudoeste 0 1012.9 -0.3 29
2019-08-16 12:00:00 30.9 10 Sudoeste 18 Sudoeste 0 1013.2 0.4 33
2019-08-16 11:00:00 29.3 9 Sur 15 Sur 0 1013.1 0.7 37
2019-08-16 10:00:00 27 3 Este 9 Este 0 1013.2 1.1 47
2019-08-16 09:00:00 24 6 Este 11 Nordeste 0 1012.8 0.9 57
2019-08-16 08:00:00 21.7 6 Nordeste 8 Nordeste 0 1012.4 0.4 65
2019-08-16 07:00:00 22 3 Nordeste 5 Nordeste 0 1012.1 -0.1 65
2019-08-16 06:00:00 22.2 4 Sudeste 8 Sudeste 0 1011.9 -0.4 64
2019-08-16 05:00:00 23.5 0 Calma 11 Sur 0 1012 -0.2 60
2019-08-16 04:00:00 22.9 8 Sur 13 Sur 0 1012.2 -0.2 63
2019-08-16 03:00:00 24.3 8 Sur 22 Sur 0 1012.3 0.1 60
2019-08-16 02:00:00 25.3 17 Sur 21 Sur 0 1012.2 0.2 53
2019-08-16 01:00:00 27.4 10 Sur 15 Sudoeste 0 1012.4 1.5 42
2019-08-16 00:00:00 28.6 12 Sur 26 Sudoeste 0 1012.2 1.8 38
2019-08-15 23:00:00 30.6 19 Sudoeste 28 Sudoeste 0 1012 2 31
2019-08-15 22:00:00 34 20 Oeste 32 Oeste 0 1010.9 0.9 23
2019-08-15 21:00:00 35.9 20 Oeste 32 Oeste 0 1010.4 0.3 23
2019-08-15 20:00:00 37.2 18 Sudoeste 30 Sudoeste 0 1010 -0.7 23
2019-08-15 19:00:00 38.8 17 Sudoeste 26 Oeste 0 1010 -1.4 20
2019-08-15 18:00:00 39.2 11 Sudoeste 21 Sudoeste 0 1010.1 -1.9 17
2019-08-15 17:00:00 38.9 7 Sudoeste 22 Sudoeste 0 1010.7 -1.9 16
2019-08-15 16:00:00 38.1 9 Oeste 21 Oeste 0 1011.4 -1.8 19
2019-08-15 15:00:00 37 7 Oeste 17 Sur 0 1012 -1.6 22
2019-08-15 14:00:00 35.3 9 Sudoeste 18 Oeste 0 1012.6 -1.1 26
2019-08-15 13:00:00 33.3 4 Sudeste 11 Sur 0 1013.2 -0.6 31
2019-08-15 12:00:00 30.8 3 Este 9 Oeste 0 1013.6 0 40
2019-08-15 11:00:00 28.3 0 Calma 8 Sur 0 1013.7 0.3 50
2019-08-15 10:00:00 25.8 0 Calma 5 Norte 0 1013.8 0.9 59
2019-08-15 09:00:00 22.6 3 Norte 5 Norte 0 1013.6 0.8 70
2019-08-15 08:00:00 21.2 3 Nordeste 5 Norte 0 1013.4 0.6 74
2019-08-15 07:00:00 21.5 0 Calma 8 Este 0 1012.9 0.2 75
2019-08-15 06:00:00 21.6 7 Este 9 Este 0 1012.8 -0.3 75
2019-08-15 05:00:00 22.6 4 Sudeste 11 Oeste 0 1012.8 -0.3 72
2019-08-15 04:00:00 23.7 9 Sudoeste 15 Noroeste 0 1012.7 -0.1 69
2019-08-15 03:00:00 24.1 7 Oeste 17 Sur 0 1013.1 0.4 67
2019-08-15 02:00:00 24.3 8 Sur 21 Sur 0 1013.1 1.1 66
2019-08-15 01:00:00 25.1 11 Sur 26 Sur 0 1012.8 1.5 66
2019-08-15 00:00:00 25.9 17 Sur 26 Sur 0 1012.7 2 64
2019-08-14 23:00:00 31.4 7 Sudoeste 26 Oeste 0 1012 1.5 34
2019-08-14 22:00:00 33.4 19 Oeste 28 Oeste 0 1011.3 0.4 31
2019-08-14 21:00:00 36.3 8 Sudoeste 17 Oeste 0 1010.7 -0.7 15
2019-08-14 20:00:00 38 4 Oeste 13 Noroeste 0 1010.5 -1.4 14
2019-08-14 19:00:00 37.5 6 Norte 22 Norte 0 1010.9 -1.6 14
2019-08-14 18:00:00 37.9 5 Noroeste 24 Norte 0 1011.4 -1.8 14
2019-08-14 17:00:00 37.3 10 Noroeste 21 Noroeste 0 1011.9 -2.1 15
2019-08-14 16:00:00 36.4 13 Oeste 21 Noroeste 0 1012.5 -2.1 21
2019-08-14 15:00:00 35.4 5 Oeste 18 Noroeste 0 1013.2 -1.8 24
2019-08-14 14:00:00 33.9 7 Norte 15 Norte 0 1014 -1.1 27
2019-08-14 13:00:00 32.1 7 Noroeste 18 Norte 0 1014.6 -0.5 31
2019-08-14 12:00:00 29.6 6 Este 17 Nordeste 0 1015 0.3 38
2019-08-14 11:00:00 27.3 9 Norte 15 Norte 0 1015.1 0.8 38
2019-08-14 10:00:00 24.6 9 Norte 15 Nordeste 0 1015.1 1.2 40
2019-08-14 09:00:00 21.9 3 Norte 9 Norte 0 1014.7 0.8 47
2019-08-14 08:00:00 19.8 2 Este 11 Este 0 1014.3 0.6 54
2019-08-14 07:00:00 19.7 10 Nordeste 15 Nordeste 0 1013.9 0.2 55
2019-08-14 06:00:00 19.7 2 Nordeste 11 Nordeste 0 1013.9 0.2 58
2019-08-14 05:00:00 20.6 6 Nordeste 9 Sur 0 1013.7 0 57
2019-08-14 04:00:00 21.2 9 Sur -- -- 0 1013.7 0.2 55
2019-08-14 03:00:00 21.2 12 Sur 18 Sur 0 1013.7 0.6 58
2019-08-14 02:00:00 22.2 15 Sur 21 Sur 0 1013.7 1.2 51
2019-08-14 01:00:00 24.2 14 Sur 22 Sudoeste 0 1013.5 2 41
2019-08-14 00:00:00 26 13 Sudoeste 22 Sudoeste 0 1013.1 2.3 35
2019-08-13 23:00:00 28.7 15 Sudoeste 22 Sudoeste 0 1012.5 2 26
2019-08-13 22:00:00 31.2 12 Sudoeste 24 Sudoeste 0 1011.5 1.1 21
2019-08-13 21:00:00 33 20 Sudoeste 30 Sudoeste 0 1010.8 0.1 19
2019-08-13 20:00:00 34.9 24 Sudoeste 30 Sudoeste 0 1010.5 -0.6 17
2019-08-13 19:00:00 36.5 9 Oeste 21 Sur 0 1010.4 -1.4 11
2019-08-13 18:00:00 36.4 8 Sur 21 Sudeste 0 1010.7 -1.7 10
2019-08-13 17:00:00 35.6 6 Este 17 Este 0 1011.1 -1.7 12
2019-08-13 16:00:00 35.1 7 Sudoeste 17 Noroeste 0 1011.8 -1.6 13
2019-08-13 15:00:00 33.8 5 Oeste 17 Sur 0 1012.4 -1 17
2019-08-13 14:00:00 32.3 7 Sudoeste 17 Oeste 0 1012.8 -0.3 19
2019-08-13 13:00:00 30.8 6 Este 15 Sudeste 0 1013.4 0.7 24
2019-08-13 12:00:00 29 6 Sudeste 17 Sur 0 1013.4 1 27
2019-08-13 11:00:00 27.6 5 Sudeste 18 Nordeste 0 1013.1 1.1 27
2019-08-13 10:00:00 24.7 11 Nordeste 15 Este 0 1012.7 1.3 32
2019-08-13 09:00:00 20.3 4 Este 8 Este 0 1012.4 1.2 51
2019-08-13 08:00:00 16.7 4 Este 8 Este 0 1012 0.9 65
2019-08-13 07:00:00 18.4 0 Calma 13 Sur 0 1011.4 0.1 64
2019-08-13 06:00:00 19.5 10 Sur 13 Sur 0 1011.2 -0.6 62
2019-08-13 05:00:00 18.2 5 Sur 9 Sur 0 1011.1 -0.8 66
2019-08-13 04:00:00 19.6 5 Sur 11 Sur 0 1011.3 -0.5 63
2019-08-13 03:00:00 21.2 9 Sur 15 Sur 0 1011.8 0 59
2019-08-13 02:00:00 23.3 7 Sur 15 Sur 0 1011.9 0.4 50
2019-08-13 01:00:00 23.8 11 Sur 13 Sur 0 1011.8 1 45
2019-08-13 00:00:00 24.7 4 Sur 15 Sudoeste 0 1011.8 1.7 43
2019-08-12 23:00:00 25.1 10 Sudoeste 21 Sudoeste 0 1011.5 2.3 42
2019-08-12 22:00:00 26.7 13 Sudoeste 26 Sudoeste 0 1010.8 1.4 36
2019-08-12 21:00:00 29.6 22 Sudoeste 30 Sudoeste 0 1010.1 0.2 26
2019-08-12 20:00:00 34.2 13 Noroeste 22 Norte 0 1009.2 -1.2 10
2019-08-12 19:00:00 34.5 14 Oeste 24 Oeste 0 1009.4 -1.8 10
2019-08-12 18:00:00 34.4 10 Norte 24 Sudeste 0 1009.9 -2.1 11
2019-08-12 17:00:00 33.3 9 Sur 18 Sur 0 1010.4 -2.3 12
2019-08-12 16:00:00 32.8 7 Nordeste 22 Norte 0 1011.2 -1.9 13
2019-08-12 15:00:00 32 8 Noroeste 22 Nordeste 0 1012 -1.5 14
2019-08-12 14:00:00 30.6 7 Nordeste 22 Norte 0 1012.7 -0.6 16
2019-08-12 13:00:00 28.9 10 Norte 22 Norte 0 1013.1 -0.4 22
2019-08-12 12:00:00 26.6 11 Norte 26 Norte 0 1013.5 0.2 28
2019-08-12 11:00:00 24.7 17 Nordeste 28 Nordeste 0 1013.3 0.5 33
2019-08-12 10:00:00 22.2 16 Norte 26 Norte 0 1013.5 0.9 42
2019-08-12 09:00:00 20.9 20 Norte 28 Norte 0 1013.3 0.7 47
2019-08-12 08:00:00 20 10 Norte 21 Norte 0 1012.8 0.2 50
2019-08-12 07:00:00 20.6 13 Nordeste 18 Norte 0 1012.6 -0.1 47
2019-08-12 06:00:00 21.4 12 Nordeste 18 Nordeste 0 1012.6 -0.6 44
2019-08-12 05:00:00 21.9 13 Nordeste 21 Norte 0 1012.6 -0.7 40
2019-08-12 04:00:00 22.7 10 Norte 15 Norte 0 1012.7 -0.7 36
2019-08-12 03:00:00 22.6 9 Noroeste 18 Noroeste 0 1013.2 -0.2 36
2019-08-12 02:00:00 23.7 13 Noroeste 18 Noroeste 0 1013.3 0.2 33
2019-08-12 01:00:00 24.4 10 Noroeste 30 Norte 0 1013.4 1.1 30
2019-08-12 00:00:00 25.5 9 Noroeste 18 Norte 0 1013.4 2.2 26
2019-08-11 23:00:00 26.8 12 Noroeste 35 Norte 0 1013.1 2.4 24
2019-08-11 22:00:00 28.1 16 Norte 45 Norte 0 1012.3 1.5 22
2019-08-11 21:00:00 31.3 13 Norte 33 Norte 0 1011.2 0 16
2019-08-11 20:00:00 33.5 15 Noroeste 28 Noroeste 0 1010.7 -0.8 14
2019-08-11 19:00:00 33.6 11 Sur 28 Oeste 0 1010.8 -1.4 18
2019-08-11 18:00:00 33.3 11 Norte 39 Norte 0 1011.2 -1.8 14
2019-08-11 17:00:00 33.4 15 Norte 41 Noroeste 0 1011.5 -2.3 14
2019-08-11 16:00:00 33 15 Oeste 35 Oeste 0 1012.2 -2.3 14
2019-08-11 15:00:00 32.6 16 Noroeste 26 Oeste 0 1013 -1.6 14
2019-08-11 14:00:00 30.3 8 Oeste 22 Sudoeste 0 1013.8 -0.6 19
2019-08-11 13:00:00 28.1 5 Noroeste 22 Noroeste 0 1014.5 0.3 28
2019-08-11 12:00:00 26.5 8 Noroeste 26 Norte 0 1014.6 0.6 32
2019-08-11 11:00:00 24.3 15 Norte 35 Norte 0 1014.4 1 37
2019-08-11 10:00:00 23.1 15 Norte 35 Norte 0 1014.2 1 40
2019-08-11 09:00:00 20.9 14 Norte 39 Norte 0 1014 1.2 51
2019-08-11 08:00:00 20.6 9 Norte 32 Norte 0 1013.4 1.1 52
2019-08-11 07:00:00 20.6 6 Noroeste 11 Noroeste 0 1013.2 0.6 57
2019-08-11 06:00:00 20.6 2 Nordeste 15 Noroeste 0 1012.8 0.2 59
2019-08-11 05:00:00 22.5 13 Noroeste 21 Noroeste 0 1012.3 -0.6 52
2019-08-11 04:00:00 22.1 13 Noroeste 17 Noroeste 0 1012.6 -0.2 52
2019-08-11 03:00:00 20.8 3 Sudoeste 9 Oeste 0 1012.6 0.1 68
2019-08-11 02:00:00 22.3 7 Sudoeste 26 Sur 0 1012.9 0.7 62
2019-08-11 01:00:00 22.4 20 Sur 30 Sur 0 1012.8 1.4 64
2019-08-11 00:00:00 23.6 17 Sudoeste 26 Sudoeste 0 1012.5 1.8 55
2019-08-10 23:00:00 25.2 20 Sudoeste 30 Sudoeste 0 1012.2 2 46
2019-08-10 22:00:00 27.1 19 Sudoeste 33 Sudoeste 0 1011.4 0.9 40
2019-08-10 21:00:00 30.1 24 Sudoeste 37 Sudoeste 0 1010.7 -0.1 33
2019-08-10 20:00:00 32.8 27 Sudoeste 37 Sudoeste 0 1010.2 -1.2 28
2019-08-10 19:00:00 34 25 Sudoeste 37 Sudoeste 0 1010.5 -2.1 29
2019-08-10 18:00:00 34.8 21 Sudoeste 39 Sudoeste 0 1010.8 -2.6 34
2019-08-10 17:00:00 35.2 13 Sudoeste 24 Oeste 0 1011.4 -2.6 30
2019-08-10 16:00:00 34.1 9 Oeste 30 Oeste 0 1012.6 -2.2 32
2019-08-10 15:00:00 33.2 11 Oeste 22 Oeste 0 1013.4 -1.6 34
2019-08-10 14:00:00 32.1 6 Oeste 17 Noroeste 0 1014 -1 38
2019-08-10 13:00:00 30.9 6 Sudoeste 13 Este 0 1014.8 -0.1 41
2019-08-10 12:00:00 28.9 6 Norte 15 Nordeste 0 1015 0.4 48
2019-08-10 11:00:00 27.3 6 Nordeste 18 Nordeste 0 1015 0.6 53
2019-08-10 10:00:00 25.2 12 Nordeste 18 Nordeste 0 1014.9 0.6 59
2019-08-10 09:00:00 22.9 5 Sudeste 11 Sudeste 0 1014.6 0.6 83
2019-08-10 08:00:00 21.2 4 Sudeste 8 Sudeste 0 1014.4 0.2 88
2019-08-10 07:00:00 21.4 5 Sudeste 8 Sudeste 0 1014.3 0 87
2019-08-10 06:00:00 22 2 Sudoeste 9 Sur 0 1014 0 86
2019-08-10 05:00:00 22.1 9 Sur 17 Sudoeste 0 1014.2 0.1 87
2019-08-10 04:00:00 22.4 11 Sur 21 Sur 0 1014.3 0.3 86
2019-08-10 03:00:00 22.8 13 Sur 26 Sudoeste 0 1014 0.3 85
2019-08-10 02:00:00 23.1 18 Sudoeste 24 Sudoeste 0 1014.1 1 83
2019-08-10 01:00:00 23.8 13 Sudoeste 24 Sur 0 1014 1.9 81
2019-08-10 00:00:00 24.2 15 Sur 24 Sudoeste 0 1013.7 2.3 79
2019-08-09 23:00:00 25.3 18 Sudoeste 33 Sudoeste 0 1013.1 2 75
2019-08-09 22:00:00 26.2 24 Sudoeste 33 Sudoeste 0 1012.1 0.9 71
2019-08-09 21:00:00 28.6 20 Sudoeste 33 Sudoeste 0 1011.4 0.1 63
2019-08-09 20:00:00 29.7 26 Sudoeste 39 Sudoeste 0 1011.1 -0.7 58
2019-08-09 19:00:00 31.1 28 Sudoeste 42 Sudoeste 0 1011.2 -1.2 51
2019-08-09 18:00:00 32.1 28 Sudoeste 42 Sudoeste 0 1011.3 -1.6 46
2019-08-09 17:00:00 33.9 21 Sudoeste 33 Sudoeste 0 1011.8 -1.6 35
2019-08-09 16:00:00 33.4 17 Sudoeste 32 Sudoeste 0 1012.4 -1.2 38
2019-08-09 15:00:00 32.7 16 Sudoeste 28 Sudoeste 0 1012.9 -1 41
2019-08-09 14:00:00 31.5 11 Sur 26 Oeste 0 1013.4 -0.3 44
2019-08-09 13:00:00 30.1 9 Sudoeste 22 Oeste 0 1013.6 0.1 48
2019-08-09 12:00:00 27.9 9 Sudoeste 15 Sudoeste 0 1013.9 0.7 56
2019-08-09 11:00:00 26.4 3 Oeste 11 Noroeste 0 1013.7 0.7 64
2019-08-09 10:00:00 24.3 0 Calma 9 Oeste 0 1013.5 0.8 74
2019-08-09 09:00:00 21.9 5 Sur 11 Sur 0 1013.2 0.9 83
2019-08-09 08:00:00 20.6 9 Sur 11 Sur 0 1013 0.8 89
2019-08-09 07:00:00 20.1 4 Sur 9 Sur 0 1012.7 0.5 89
2019-08-09 06:00:00 20.7 6 Sur 17 Sur 0 1012.3 0.1 88
2019-08-09 05:00:00 20.9 10 Sur 17 Sudoeste 0 1012.2 0.2 87
2019-08-09 04:00:00 21.6 10 Sur 18 Sur 0 1012.2 0.4 86
2019-08-09 03:00:00 22 9 Sudoeste 24 Sudoeste 0 1012.2 1 84
2019-08-09 02:00:00 22.3 19 Sudoeste 26 Sudoeste 0 1012 1.3 81
2019-08-09 01:00:00 23.3 16 Sudoeste 28 Sur 0 1011.8 2.3 69
2019-08-09 00:00:00 25 15 Sur 22 Sur 0 1011.2 2.5 54
2019-08-08 23:00:00 27.4 13 Oeste 22 Sudoeste 0 1010.7 2.5 40
2019-08-08 22:00:00 28.5 17 Sudoeste 32 Sudoeste 0 1009.5 1.1 38
2019-08-08 21:00:00 31.4 22 Sudoeste 35 Sudoeste 0 1008.7 0.1 29
2019-08-08 20:00:00 33.5 26 Sudoeste 39 Sudoeste 0 1008.2 -0.7 26
2019-08-08 19:00:00 34.6 25 Sudoeste 37 Sudoeste 0 1008.4 -1.1 28
2019-08-08 18:00:00 35.6 23 Sudoeste 33 Sudoeste 0 1008.6 -1.3 28
2019-08-08 17:00:00 36.2 15 Sudoeste 30 Sudoeste 0 1008.9 -1.5 26
2019-08-08 16:00:00 36.1 9 Oeste 28 Sudoeste 0 1009.5 -1.5 21
2019-08-08 15:00:00 35.1 10 Noroeste 28 Oeste 0 1009.9 -1.3 22
2019-08-08 14:00:00 34.1 9 Sudoeste 18 Sudoeste 0 1010.4 -0.8 25
2019-08-08 13:00:00 32.4 5 Norte 13 Oeste 0 1011 0 30
2019-08-08 12:00:00 30.4 5 Este 15 Este 0 1011.2 0.1 39
2019-08-08 11:00:00 27.4 8 Nordeste 15 Nordeste 0 1011.2 0.4 50
2019-08-08 10:00:00 25.2 6 Nordeste 9 Nordeste 0 1011 0.6 61
2019-08-08 09:00:00 22.5 3 Sudeste -- -- 0 1011.1 0.8 71
2019-08-08 08:00:00 19.8 5 Sur 9 Sur 0 1010.8 0.5 80
2019-08-08 07:00:00 20.4 0 Calma 15 Sur 0 1010.4 -0.1 78
2019-08-08 06:00:00 20.3 12 Sur 17 Sur 0 1010.3 -0.3 80
2019-08-08 05:00:00 21.6 2 Sur 13 Sur 0 1010.3 -0.5 77
2019-08-08 04:00:00 21.9 12 Sur 15 Sur 0 1010.5 -0.2 77
2019-08-08 03:00:00 22.6 6 Sur 15 Sur 0 1010.6 0.1 74
2019-08-08 02:00:00 23.6 8 Sur 15 Sur 0 1010.8 0.8 69
2019-08-08 01:00:00 24.5 10 Sur 17 Sur 0 1010.7 1.4 65
2019-08-08 00:00:00 25.9 10 Sur 15 Sur 0 1010.5 1.8 57
2019-08-07 23:00:00 26.5 13 Sudoeste 24 Sudoeste 0 1010 1.6 55
2019-08-07 22:00:00 27.5 19 Sudoeste 24 Sudoeste 0 1009.3 1 52
2019-08-07 21:00:00 29.9 17 Sudoeste 30 Sudoeste 0 1008.7 -0.1 48
2019-08-07 20:00:00 31.6 22 Sudoeste 30 Sudoeste 0 1008.4 -0.7 39
2019-08-07 19:00:00 33.9 10 Sur 21 Sudoeste 0 1008.3 -1.3 30
2019-08-07 18:00:00 34.1 12 Sudoeste 21 Sudoeste 0 1008.8 -1.2 30
2019-08-07 17:00:00 33.1 10 Sudoeste 18 Sudoeste 0 1009.1 -1.1 32
2019-08-07 16:00:00 31.9 10 Sudoeste 18 Sudoeste 0 1009.6 -1.1 33
2019-08-07 15:00:00 31.4 12 Sudoeste 21 Oeste 0 1010 -0.9 36
2019-08-07 14:00:00 31.6 11 Oeste 21 Oeste 0 1010.2 -0.3 37
2019-08-07 13:00:00 29.9 10 Sur 18 Sur 0 1010.7 0.4 46
2019-08-07 12:00:00 27.5 7 Sudoeste 15 Sudoeste 0 1010.9 1.1 53
2019-08-07 11:00:00 25.3 5 Sudoeste 9 Sudoeste 0 1010.5 1.3 66
2019-08-07 10:00:00 22.5 5 Sudoeste 11 Sudoeste 0 1010.3 1.3 78
2019-08-07 09:00:00 21.7 8 Sudoeste 11 Sudoeste 0 1009.8 0.9 82
2019-08-07 08:00:00 20.3 5 Oeste 8 Oeste 0 1009.2 0.6 83
2019-08-07 07:00:00 20.7 4 Sur 9 Sudoeste 0 1009 0.4 79
2019-08-07 06:00:00 21.2 9 Sur 17 Sur 0 1008.9 0.1 79
2019-08-07 05:00:00 21.6 9 Sudoeste 13 Sudoeste 0 1008.6 -0.3 75
2019-08-07 04:00:00 22.2 9 Sur 17 Sur 0 1008.6 -0.3 67
2019-08-07 03:00:00 23 12 Sur 21 Sudoeste 0 1008.8 -0.2 63
2019-08-07 02:00:00 23.1 11 Sur 18 Sur 0 1008.9 0.3 64
2019-08-07 01:00:00 23.8 10 Sur 22 Sur 0 1008.9 1.5 58
2019-08-07 00:00:00 25.6 13 Sur 21 Sur 0 1009 2.3 47
2019-08-06 23:00:00 27.6 14 Sudoeste 24 Sudoeste 0 1008.6 2.4 38
2019-08-06 22:00:00 30.1 18 Sudoeste 33 Sudoeste 0 1007.4 0.9 29
2019-08-06 21:00:00 33.4 21 Sudoeste 35 Sudoeste 0 1006.7 -0.2 19
2019-08-06 20:00:00 34.8 25 Sudoeste 33 Sudoeste 0 1006.2 -1.5 16
2019-08-06 19:00:00 36 21 Sudoeste 30 Sudoeste 0 1006.5 -2 17
2019-08-06 18:00:00 36.6 16 Sudoeste 30 Sudoeste 0 1006.9 -2.3 18
2019-08-06 17:00:00 36.6 11 Sudoeste 22 Sudoeste 0 1007.7 -2 11
2019-08-06 16:00:00 35.7 12 Oeste 24 Oeste 0 1008.5 -1.7 14
2019-08-06 15:00:00 34.2 10 Oeste 22 Oeste 0 1009.2 -1.5 25
2019-08-06 14:00:00 32.1 7 Oeste 22 Sudoeste 0 1009.7 -1.6 32
2019-08-06 13:00:00 30 9 Sur 18 Sur 0 1010.2 -1.1 41
2019-08-06 12:00:00 26.8 8 Sudoeste 15 Sudoeste 0 1010.7 0.1 56
2019-08-06 11:00:00 24.2 7 Sudoeste 15 Oeste 0 1011.3 0.9 68
2019-08-06 10:00:00 21.9 5 Oeste 33 Norte 0 1011.3 1.3 76
2019-08-06 09:00:00 20.1 6 Norte 30 Norte 0 1010.6 0.2 80
2019-08-06 08:00:00 19.2 5 Oeste 9 Sudoeste 0 1010.4 0 84
2019-08-06 07:00:00 19.2 4 Sur 15 Sur 0 1010 -0.6 83
2019-08-06 06:00:00 18.8 10 Sur 15 Sur 0 1010.4 -0.1 83
2019-08-06 05:00:00 20 7 Sur 13 Sur 0 1010.4 -0.2 78
2019-08-06 04:00:00 20.7 6 Sudoeste 21 Sudoeste 0 1010.6 0.1 72
2019-08-06 03:00:00 21.6 12 Sudoeste 18 Sudoeste 0 1010.5 0.2 65
2019-08-06 02:00:00 22.2 13 Sudoeste 26 Sur 0 1010.6 0.9 61
2019-08-06 01:00:00 22.8 14 Sur 21 Sudoeste 0 1010.5 2 61
2019-08-06 00:00:00 24.3 13 Sur 24 Sudoeste 0 1010.3 2.4 49
2019-08-05 23:00:00 26.3 18 Sudoeste 30 Sudoeste 0 1009.7 2.4 39
2019-08-05 22:00:00 29 19 Sudoeste 32 Sudoeste 0 1008.5 1.1 29
2019-08-05 21:00:00 32.1 24 Sudoeste 33 Sudoeste 0 1007.9 0.3 26
2019-08-05 20:00:00 35.1 22 Sudoeste 35 Sudoeste 0 1007.3 -0.6 23
2019-08-05 19:00:00 36.3 26 Sudoeste 37 Sudoeste 0 1007.4 -1 19
2019-08-05 18:00:00 37.2 25 Sudoeste 37 Sudoeste 0 1007.6 -1.3 19
2019-08-05 17:00:00 37.2 19 Sudoeste 28 Sudoeste 0 1007.9 -1.7 22
2019-08-05 16:00:00 36.9 14 Sudoeste 28 Oeste 0 1008.4 -2 19
2019-08-05 15:00:00 35.8 9 Sudoeste 22 Oeste 0 1008.9 -1.9 23
2019-08-05 14:00:00 34.7 10 Oeste 21 Oeste 0 1009.6 -1.5 26
2019-08-05 13:00:00 32.5 7 Noroeste 13 Oeste 0 1010.4 -0.8 30
2019-08-05 12:00:00 30 7 Este 13 Este 0 1010.8 -0.2 40
2019-08-05 11:00:00 27.7 3 Nordeste 11 Norte 0 1011.1 0.3 47
2019-08-05 10:00:00 24.8 0 Calma 8 Sur 0 1011.2 0.9 57
2019-08-05 09:00:00 22.6 4 Sudeste 15 Norte 0 1011 0.8 64
2019-08-05 08:00:00 19.8 6 Nordeste 13 Norte 0 1010.8 0.5 72
2019-08-05 07:00:00 19.6 3 Sudeste 9 Sudeste 0 1010.3 0.1 73
2019-08-05 06:00:00 20 8 Sudeste 9 Sur 0 1010.2 -0.4 72
2019-08-05 05:00:00 19.6 9 Sudeste 11 Sudeste 0 1010.3 -0.4 74
2019-08-05 04:00:00 21.4 3 Este 8 Sudeste 0 1010.2 -0.5 68
2019-08-05 03:00:00 22.1 6 Sur 13 Sur 0 1010.6 0.3 65
2019-08-05 02:00:00 24.2 7 Sudoeste 18 Sudoeste 0 1010.7 0.9 58
2019-08-05 01:00:00 25.2 11 Sur 21 Sur 0 1010.7 1.4 52
2019-08-05 00:00:00 25.6 15 Sur 21 Sur 0 1010.3 1.5 53
2019-08-04 23:00:00 27.4 13 Sur 21 Sudoeste 0 1009.8 1.4 45
2019-08-04 22:00:00 28.8 17 Sudoeste 26 Sudoeste 0 1009.3 0.9 42
2019-08-04 21:00:00 31.1 19 Sudoeste 33 Sudoeste 0 1008.8 0.4 38
2019-08-04 20:00:00 33.3 24 Sudoeste 35 Sudoeste 0 1008.4 -0.4 31
2019-08-04 19:00:00 34.9 22 Sudoeste 32 Sudoeste 0 1008.4 -1.2 29
2019-08-04 18:00:00 36.6 13 Sudoeste 26 Oeste 0 1008.4 -1.7 24
2019-08-04 17:00:00 35.8 9 Sur 28 Sudoeste 0 1008.8 -2 26
2019-08-04 16:00:00 35.1 9 Sudoeste 21 Sudoeste 0 1009.6 -1.9 26
2019-08-04 15:00:00 33.2 8 Oeste 17 Oeste 0 1010.1 -2 35
2019-08-04 14:00:00 30.6 9 Sudoeste 18 Sudoeste 0 1010.8 -1.3 45
2019-08-04 13:00:00 28 9 Oeste 18 Oeste 0 1011.5 -0.6 57
2019-08-04 12:00:00 24.6 9 Sudoeste 17 Sudoeste 0 1012.1 0.2 71
2019-08-04 11:00:00 22.6 8 Sudoeste 13 Sudoeste 0 1012.1 0.6 80
2019-08-04 10:00:00 21.2 8 Oeste 17 Sudoeste 0 1012.1 0.9 88
2019-08-04 09:00:00 20.5 10 Sur 13 Sudoeste 0 1011.9 0.9 91
2019-08-04 08:00:00 20 7 Sur 11 Sudoeste 0 1011.5 0.5 88
2019-08-04 07:00:00 20.1 6 Sudoeste 18 Sudoeste 0 1011.2 0.5 85
2019-08-04 06:00:00 20.5 11 Sudoeste 17 Sudoeste 0 1011 0.4 81
2019-08-04 05:00:00 20.8 9 Sudoeste 18 Sudoeste 0 1011 0.4 77
2019-08-04 04:00:00 21 9 Sudoeste 13 Sudoeste 0 1010.7 0.2 76
2019-08-04 03:00:00 21.5 9 Sur 17 Sur 0 1010.6 0.1 75
2019-08-04 02:00:00 21.9 11 Sur 24 Sudoeste 0 1010.6 0.7 65
2019-08-04 01:00:00 22.6 18 Sudoeste 28 Sudoeste 0 1010.5 1.6 59
2019-08-04 00:00:00 23.7 15 Sudoeste 26 Sur 0 1010.5 2.4 55
2019-08-03 23:00:00 25.7 16 Sudoeste 24 Sudoeste 0 1009.9 1.9 52
2019-08-03 22:00:00 28.7 15 Sudoeste 28 Sudoeste 0 1008.9 0.8 40
2019-08-03 21:00:00 31.2 18 Sudoeste 35 Sudoeste 0 1008.1 -0.5 32
2019-08-03 20:00:00 33.2 26 Sudoeste 32 Sudoeste 0 1008 -1.1 26
2019-08-03 19:00:00 34.8 19 Sudoeste 30 Sudoeste 0 1008.1 -1.6 22
2019-08-03 18:00:00 35 18 Sudoeste 30 Sudoeste 0 1008.6 -1.5 21
2019-08-03 17:00:00 34.4 19 Sudoeste 32 Sudoeste 0 1009.1 -1.7 26
2019-08-03 16:00:00 33.6 18 Oeste 30 Oeste 0 1009.7 -1.5 27
2019-08-03 15:00:00 32.1 19 Sudoeste 30 Sudoeste 0 1010.1 -1 35
2019-08-03 14:00:00 30.9 17 Sudoeste 32 Sudoeste 0 1010.8 -0.4 36
2019-08-03 13:00:00 29.4 18 Sudoeste 28 Oeste 0 1011.2 0 41
2019-08-03 12:00:00 27.3 12 Sudoeste 21 Oeste 0 1011.1 0.3 51
2019-08-03 11:00:00 25.2 10 Sudoeste 17 Oeste 0 1011.2 0.8 64
2019-08-03 10:00:00 23 9 Sudoeste 15 Sudoeste 0 1011.2 1.1 74
2019-08-03 09:00:00 21.4 10 Sudoeste 15 Sudoeste 0 1010.8 0.9 81
2019-08-03 08:00:00 19.9 4 Sur 9 Sudoeste 0 1010.4 0.7 78
2019-08-03 07:00:00 20.2 4 Sudoeste 15 Sudoeste 0 1010.1 0.4 75
2019-08-03 06:00:00 20.6 12 Sudoeste 21 Sudoeste 0 1009.9 0 72
2019-08-03 05:00:00 21.3 13 Sudoeste 21 Sudoeste 0 1009.7 0.1 66
2019-08-03 04:00:00 21.5 8 Sudoeste 15 Sur 0 1009.7 0 65
2019-08-03 03:00:00 22.1 10 Sur 21 Sudoeste 0 1009.9 0.2 61
2019-08-03 02:00:00 23.1 14 Sur 21 Sur 0 1009.6 0.2 53
2019-08-03 01:00:00 23.9 13 Sur 22 Sudoeste 0 1009.7 1 47
2019-08-03 00:00:00 25.7 14 Sur 21 Sur 0 1009.7 1.5 41
2019-08-02 23:00:00 28.2 12 Sur 21 Oeste 0 1009.4 1.4 32
2019-08-02 22:00:00 31.4 19 Oeste 26 Oeste 0 1008.7 0.4 22
2019-08-02 21:00:00 34.4 22 Sudoeste 32 Sudoeste 0 1008.2 -0.4 15
2019-08-02 20:00:00 34.8 23 Sudoeste 37 Sudoeste 0 1008 -0.9 15
2019-08-02 19:00:00 35.6 25 Sudoeste 37 Sudoeste 0 1008.3 -1.1 14
2019-08-02 18:00:00 36.3 21 Sudoeste 35 Sudoeste 0 1008.6 -1.2 16
2019-08-02 17:00:00 36.9 14 Sudoeste 26 Oeste 0 1008.9 -1.5 16
2019-08-02 16:00:00 36.4 13 Sudoeste 26 Oeste 0 1009.4 -1.4 15
2019-08-02 15:00:00 35.5 10 Sudoeste 26 Oeste 0 1009.8 -1.2 18
2019-08-02 14:00:00 34.8 12 Oeste 22 Oeste 0 1010.4 -0.7 20
2019-08-02 13:00:00 33.7 6 Sudoeste 15 Sudoeste 0 1010.8 -0.2 22
2019-08-02 12:00:00 30.9 5 Sur 13 Sur 0 1011 0.1 29
2019-08-02 11:00:00 27.7 3 Nordeste 18 Noroeste 0 1011.1 0.5 36
2019-08-02 10:00:00 24.4 6 Norte 15 Norte 0 1011 0.7 46
2019-08-02 09:00:00 22.4 5 Nordeste 17 Norte 0 1010.9 1.1 53
2019-08-02 08:00:00 20.1 0 Calma 9 Sudeste 0 1010.6 0.7 61
2019-08-02 07:00:00 19.4 7 Sur 13 Sur 0 1010.3 0.4 63
2019-08-02 06:00:00 19.6 10 Sur 11 Sur 0 1009.8 -0.1 63
2019-08-02 05:00:00 20.7 8 Sur 13 Sur 0 1009.9 -0.1 59
2019-08-02 04:00:00 22.3 9 Sur 15 Sur 0 1009.9 0.4 54
2019-08-02 03:00:00 21.8 8 Sur 13 Sur 0 1009.9 0.5 55
2019-08-02 02:00:00 22.8 8 Sur 18 Sudoeste 0 1010 0.7 51
2019-08-02 01:00:00 24.7 13 Sur 21 Sur 0 1009.5 1.2 42
2019-08-02 00:00:00 25.2 13 Sur 24 Sudoeste 0 1009.4 2.1 41
2019-08-01 23:00:00 26.7 18 Sudoeste 22 Sudoeste 0 1009.3 2.7 35
2019-08-01 22:00:00 28.5 15 Sudoeste 33 Sudoeste 0 1008.3 1.8 38
2019-08-01 21:00:00 32 24 Sudoeste 35 Sudoeste 0 1007.3 0.4 40
2019-08-01 20:00:00 34.4 15 Sur 30 Sudoeste 0 1006.6 -0.7 35
2019-08-01 19:00:00 36 13 Sudoeste 26 Sudoeste 0 1006.5 -1.4 28
2019-08-01 18:00:00 36.4 14 Oeste 28 Oeste 0 1006.9 -1.6 24
2019-08-01 17:00:00 36.4 14 Sudoeste 28 Sudoeste 0 1007.3 -1.8 20
2019-08-01 16:00:00 35.8 10 Oeste 22 Sur 0 1007.9 -1.8 21
2019-08-01 15:00:00 34.4 11 Sudoeste 41 Noroeste 0 1008.5 -1.4 23
2019-08-01 14:00:00 32.5 10 Oeste 22 Oeste 0 1009.1 -0.8 33
2019-08-01 13:00:00 30.8 6 Oeste 28 Sudoeste 0 1009.7 0 47
2019-08-01 12:00:00 29.5 6 Oeste 17 Sudoeste 0 1009.9 0.5 49
2019-08-01 11:00:00 27 5 Noroeste 17 Noroeste 0 1009.9 1.4 48
2019-08-01 10:00:00 24.8 6 Norte 26 Norte 0 1009.7 1.5 50
2019-08-01 09:00:00 23.4 10 Norte 24 Norte 0 1009.4 -- 53
2019-08-01 08:00:00 22.5 0 Calma 13 Sudoeste 0 1008.5 -- 59
2019-08-01 07:00:00 22.5 10 Sudoeste -- -- -- 1008.2 -- 60
2019-08-01 06:00:00 -- -- -- -- -- -- -- -- --
2019-08-01 05:00:00 -- -- -- -- -- -- -- -- --
2019-08-01 04:00:00 -- -- -- -- -- -- -- -- --
2019-08-01 03:00:00 -- -- -- -- -- -- -- -- --
2019-08-01 02:00:00 -- -- -- -- -- -- -- -- --
2019-08-01 01:00:00 -- -- -- 28 Oeste 0 -- -- --
2019-08-01 00:00:00 28.3 19 Oeste 32 Oeste 0 1008 2.7 54
2019-07-31 23:00:00 29.6 21 Sudoeste 30 Oeste 0 1007.4 2.6 50
2019-07-31 22:00:00 31.3 21 Sudoeste 32 Sudoeste 0 1006.2 1.2 42
2019-07-31 21:00:00 32.8 22 Sudoeste 33 Sudoeste 0 1005.3 0 38
2019-07-31 20:00:00 34.8 23 Sudoeste 30 Sudoeste 0 1004.8 -1.2 30
2019-07-31 19:00:00 36.2 14 Sudoeste 26 Oeste 0 1005 -1.7 25
2019-07-31 18:00:00 36.4 12 Sudoeste 24 Oeste 0 1005.3 -1.8 19
2019-07-31 17:00:00 36 11 Sudoeste 28 Sudoeste 0 1006 -1.8 19
2019-07-31 16:00:00 35.4 12 Sudoeste 26 Oeste 0 1006.7 -1.8 21
2019-07-31 15:00:00 34.4 13 Oeste 33 Oeste 0 1007.1 -2 24
2019-07-31 14:00:00 33.1 10 Oeste 28 Sudoeste 0 1007.8 -1 22
2019-07-31 13:00:00 31.4 17 Oeste 28 Oeste 0 1008.5 0.1 22
2019-07-31 12:00:00 30.1 9 Oeste 22 Sudoeste 0 1009.1 1 20
2019-07-31 11:00:00 28.3 5 Sudeste 15 Nordeste 0 1008.8 1.1 25
2019-07-31 10:00:00 26.6 5 Este 13 Nordeste 0 1008.4 0.9 24
2019-07-31 09:00:00 23.4 4 Nordeste 11 Nordeste 0 1008.1 0.8 28
2019-07-31 08:00:00 20.6 0 Calma 9 Este 0 1007.7 0.4 32
2019-07-31 07:00:00 21.5 3 Sur 13 Norte 0 1007.5 0.1 33
2019-07-31 06:00:00 22.4 9 Norte 13 Norte 0 1007.3 0.1 31
2019-07-31 05:00:00 22.7 3 Nordeste 9 Este 0 1007.3 -0.4 29
2019-07-31 04:00:00 24.6 9 Este 18 Nordeste 0 1007.4 -0.4 26
2019-07-31 03:00:00 23 5 Sudeste 9 Sudeste 0 1007.2 -0.5 29
2019-07-31 02:00:00 23.6 6 Sudeste 8 Sudeste 0 1007.7 0.6 28
2019-07-31 01:00:00 24.3 9 Sudeste 9 Sur 0 1007.8 1.4 27
2019-07-31 00:00:00 25.6 2 Sudeste 9 Nordeste 0 1007.7 1.7 23
2019-07-30 23:00:00 29.8 8 Nordeste 17 Norte 0 1007.1 1.2 15
2019-07-30 22:00:00 32.4 10 Norte 15 Norte 0 1006.4 0 13
2019-07-30 21:00:00 35.8 8 Noroeste 17 Norte 0 1006 -0.9 10
2019-07-30 20:00:00 36.5 12 Noroeste 21 Norte 0 1005.9 -1.6 10
2019-07-30 19:00:00 36.7 7 Noroeste -- -- -- 1006.4 -1.9 10
2019-07-30 18:00:00 36.6 8 Noroeste 24 Oeste 0 1006.9 -2 10
2019-07-30 17:00:00 35.9 9 Noroeste -- -- -- 1007.5 -2.1 11
2019-07-30 16:00:00 34.9 10 Norte 21 Norte 0 1008.3 -2.1 13
2019-07-30 15:00:00 33.7 9 Noroeste 22 Norte 0 1008.9 -1.7 17
2019-07-30 14:00:00 32.4 11 Nordeste 26 Norte 0 1009.6 -1.2 20
2019-07-30 13:00:00 30.6 14 Norte 24 Norte 0 1010.4 -0.6 23
2019-07-30 12:00:00 28.1 14 Norte 24 Norte 0 1010.6 -0.1 29
2019-07-30 11:00:00 26 15 Norte 28 Norte 0 1010.8 0.4 33
2019-07-30 10:00:00 24.2 22 Nordeste 32 Norte 0 1011 0.7 37
2019-07-30 09:00:00 22.7 15 Nordeste 22 Nordeste 0 1010.7 0.6 41
2019-07-30 08:00:00 21.1 10 Nordeste 18 Norte 0 1010.4 0.5 47
2019-07-30 07:00:00 21.5 14 Norte 24 Nordeste 0 1010.3 0.5 45
2019-07-30 06:00:00 21.8 14 Norte 22 Norte 0 1010.1 0.3 44
2019-07-30 05:00:00 22.6 11 Norte 18 Norte 0 1009.9 0.3 41
2019-07-30 04:00:00 22.8 9 Norte 13 Nordeste 0 1009.8 0.4 40
2019-07-30 03:00:00 23.3 4 Este 8 Norte 0 1009.8 0.8 43
2019-07-30 02:00:00 25.2 5 Norte 15 Noroeste 0 1009.6 1.2 34
2019-07-30 01:00:00 26.8 13 Noroeste 32 Norte 0 1009.4 2 30
2019-07-30 00:00:00 28.7 15 Norte 33 Norte 0 1009 2.4 27
2019-07-29 23:00:00 29.9 14 Noroeste 32 Noroeste 0 1008.4 1.9 26
2019-07-29 22:00:00 31.8 18 Oeste 26 Oeste 0 1007.4 0.7 25
2019-07-29 21:00:00 31.2 22 Sudoeste 37 Sudoeste 0 1006.6 -0.4 40
2019-07-29 20:00:00 32.3 26 Sudoeste 37 Sur 0 1006.5 -0.7 37
2019-07-29 19:00:00 33.8 28 Sudoeste 41 Sudoeste 0 1006.7 -1.2 30
2019-07-29 18:00:00 35.1 17 Sudoeste 30 Sudoeste 0 1007 -1.6 22
2019-07-29 17:00:00 34.7 10 Sur 26 Oeste 0 1007.2 -1.9 21
2019-07-29 16:00:00 33.9 7 Oeste 30 Oeste 0 1007.9 -1.8 24
2019-07-29 15:00:00 32.5 11 Sudoeste 24 Sudoeste 0 1008.6 -1.2 25
2019-07-29 14:00:00 31.3 9 Sudoeste 22 Sudoeste 0 1009.1 -0.8 32
2019-07-29 13:00:00 28.9 7 Oeste 17 Oeste 0 1009.7 -0.2 42
2019-07-29 12:00:00 26.8 7 Oeste 13 Noroeste 0 1009.8 0.1 55
2019-07-29 11:00:00 24.7 3 Oeste 13 Noroeste 0 1009.9 0.9 66
2019-07-29 10:00:00 22.4 5 Sudoeste 13 Sur 0 1009.9 1.5 75
2019-07-29 09:00:00 20.9 9 Sudoeste 15 Sudoeste 0 1009.7 1.6 81
2019-07-29 08:00:00 19.8 6 Sur 13 Sur 0 1009 1 85
2019-07-29 07:00:00 19.3 10 Sur 13 Sur 0 1008.4 0.4 86
2019-07-29 06:00:00 19.5 10 Sur 15 Sur 0 1008.1 0.1 84
2019-07-29 05:00:00 20.2 10 Sur 15 Sur 0 1008 0.1 83
2019-07-29 04:00:00 20.5 12 Sudoeste 17 Sudoeste 0 1008 0 81
2019-07-29 03:00:00 21 9 Sudoeste 17 Sudoeste 0 1008 0 78
2019-07-29 02:00:00 21.7 10 Sudoeste 18 Sur 0 1007.9 0.2 73
2019-07-29 01:00:00 22 11 Sur 22 Sudoeste 0 1008 1.3 71
2019-07-29 00:00:00 22.8 16 Sudoeste 24 Sudoeste 0 1008 1.9 65
2019-07-28 23:00:00 23.6 14 Sudoeste 28 Sudoeste 0 1007.7 2.3 63
2019-07-28 22:00:00 25.1 17 Sudoeste 33 Sudoeste 0 1006.7 1.5 58
2019-07-28 21:00:00 27.2 24 Sudoeste 37 Sudoeste 0 1006.1 0.7 53
2019-07-28 20:00:00 29.1 27 Sudoeste 35 Sudoeste 0 1005.4 -0.4 46
2019-07-28 19:00:00 30.5 23 Sudoeste 35 Sudoeste 0 1005.2 -1.1 43
2019-07-28 18:00:00 31.9 17 Sudoeste 37 Norte 0 1005.4 -1.4 37
2019-07-28 17:00:00 31.8 11 Oeste 22 Noroeste 0 1005.8 -1.4 31
2019-07-28 16:00:00 31.1 11 Oeste 22 Oeste 0 1006.3 -1.5 36
2019-07-28 15:00:00 30.4 5 Norte 17 Nordeste 0 1006.8 -1.2 39
2019-07-28 14:00:00 29.5 6 Sudeste 18 Norte 0 1007.2 -1 42
2019-07-28 13:00:00 28.1 8 Nordeste 18 Norte 0 1007.8 -0.5 46
2019-07-28 12:00:00 26.7 5 Sudeste 15 Nordeste 0 1008 -0.2 53
2019-07-28 11:00:00 24.7 4 Nordeste 13 Nordeste 0 1008.2 0.1 62
2019-07-28 10:00:00 23.3 3 Norte 8 Oeste 0 1008.3 0.4 68
2019-07-28 09:00:00 21 0 Calma 9 Sudeste 0 1008.2 0.6 77
2019-07-28 08:00:00 19.8 6 Sudeste 9 Sudeste 0 1008.1 0.6 80
2019-07-28 07:00:00 19.6 5 Sur 15 Sur 0 1007.9 0.1 83
2019-07-28 06:00:00 19.2 9 Sur 13 Sur 0 1007.6 -0.6 86
2019-07-28 05:00:00 19.5 6 Sur 13 Sur 0 1007.5 -0.9 86
2019-07-28 04:00:00 19.8 9 Sur 15 Sur 0 1007.8 -0.9 87
2019-07-28 03:00:00 20.5 11 Sur 18 Sur 0 1008.2 -0.4 84
2019-07-28 02:00:00 20.9 10 Sur 21 Sudoeste 0 1008.4 0 81
2019-07-28 01:00:00 21.1 13 Sur 28 Sudoeste 0 1008.7 0.9 81
2019-07-28 00:00:00 21.4 19 Sudoeste 32 Sudoeste 0 1008.6 1.2 80
2019-07-27 23:00:00 22.3 19 Sudoeste 35 Sudoeste 0 1008.4 1.1 77
2019-07-26 12:00:00 27.1 10 Sur 18 Sur 0 1011.3 0.3 59
2019-07-26 11:00:00 25.6 4 Norte 13 Sudeste 0 1011.3 0.5 66
2019-07-26 10:00:00 23.9 3 Sudoeste 13 Oeste 0 1011.4 0.7 75
2019-07-26 09:00:00 22.3 8 Sur 17 Sudoeste 0 1011 0.7 84
2019-07-26 08:00:00 21.2 12 Sudoeste 24 Sudoeste 0 1010.8 0.7 90
2019-07-26 07:00:00 21.2 16 Sudoeste 22 Sudoeste 0 1010.7 0.2 90
2019-07-26 06:00:00 21.7 12 Sur 21 Sur 0 1010.3 -0.4 86
2019-07-26 05:00:00 21.9 14 Sur 22 Sur 0 1010.1 -0.6 85
2019-07-26 04:00:00 22.2 15 Sur 24 Sur 0 1010.5 0 83
2019-07-26 03:00:00 22.5 15 Sur 24 Sudoeste 0 1010.7 0.4 79
2019-07-26 02:00:00 23.3 15 Sudoeste 28 Sur 0 1010.7 0.7 75
2019-07-26 01:00:00 23.9 16 Sur 24 Sudoeste 0 1010.5 1.2 72
2019-07-26 00:00:00 24.5 14 Sur 32 Sudoeste 0 1010.3 1.5 68